PSA CRJ9 at Newport News on Mar 6th 2022, wing tip strike on landing

Last Update: March 7, 2022 / 20:54:27 GMT/Zulu time

Bookmark this article
Incident Facts

Date of incident
Mar 6, 2022

Classification
Incident

Flight number
AA-5662

Aircraft Registration
N602NN

ICAO Type Designator
CRJ9

Airport ICAO Code
KPHF

A PSA Airlines Canadair CRJ-900 on behalf of American Airlines, registration N602NN performing flight AA-5662 from Charlotte,NC to Newport News,VA (USA), landed on Newport News' runway 25 but performed a balked landing and went around reporting they had gone around due to gusting winds. The aircraft positioned for another approach to runway and landed about 10 minutes later. Tower subsequently advised later landings there had been a loss of 15 knots of airspeed on final.

The FAA reported giving the timestamp of the second landing as occurrence time: "AIRCRAFT ON LANDING STRUCK WINGTIP ON RUNWAY, NEWPORT NEWS, VA.", the damage was unknown and the occurrence rated an incident.



Metars:
KPHF 061954Z 23016G23KT 10SM SCT055 24/13 A3013 RMK AO2 SLP202 T02440133=
KPHF 061854Z 24014KT 10SM CLR 24/14 A3015 RMK AO2 PK WND 22027/1812 SLP208 T02440144=
KPHF 061754Z 23017G24KT 10SM FEW039 24/15 A3018 RMK AO2 PK WND 22032/1703 SLP219 T02440150 10244 20161 58025=
KPHF 061654Z 22021G28KT 10SM SCT035 23/15 A3022 RMK AO2 PK WND 23031/1604 SLP231 T02330150=
KPHF 061554Z 22020G28KT 10SM SCT030 22/16 A3023 RMK AO2 PK WND 23031/1541 SLP237 T02220156=
KPHF 061535Z 22021G26KT 10SM SCT030 21/16 A3024 RMK AO2 PK WND 22029/1507 T02110156=
KPHF 061454Z 22019G25KT 10SM BKN026 OVC032 21/16 A3025 RMK AO2 PK WND 24026/1440 SLP244 T02060161 58007=
KPHF 061411Z 23014KT 10SM BKN023 19/16 A3027 RMK AO2 T01940161=
KPHF 061402Z 22014KT 10SM SCT021 19/16 A3027 RMK AO2 T01890161=
KPHF 061354Z 22015G22KT 10SM BKN021 18/16 A3027 RMK AO2 SLP249 T01830161=
Aircraft Registration Data
Registration mark
N602NN
Country of Registration
United States
Date of Registration
Lek mgfppmcl Subscribe to unlock
Manufacturer
BOMBARDIER INC
Aircraft Model / Type
CL-600-2D24
Number of Seats
ICAO Aircraft Type
CRJ9
Year of Manufacture
Serial Number
Aircraft Address / Mode S Code (HEX)
Engine Count
Engine Manufacturer
Engine Model
Engine Type
Pounds of Thrust
Main Owner
MkhcqmfiheqhbkfqjApcqcjmhAqimjpAnAik hcjAhlekpciklkjfnpAdincncehApnimj gcimib nmqh Subscribe to unlock
Incident Facts

Date of incident
Mar 6, 2022

Classification
Incident

Flight number
AA-5662

Aircraft Registration
N602NN

ICAO Type Designator
CRJ9

Airport ICAO Code
KPHF

This article is published under license from Avherald.com. © of text by Avherald.com.
Article source

You can read 2 more free articles without a subscription.

Subscribe now and continue reading without any limits!

Are you a subscriber? Login
Subscribe

Read unlimited articles and receive our daily update briefing. Gain better insights into what is happening in commercial aviation safety.

Free newsletter

Want to know more and stay ahead? Get our free weekly newsletter and join 5372 existing subscribers.

By subscribing, you accept our terms and conditions and confirm that you've read our privacy policy.

Send tip

Support AeroInside by sending a small tip amount.

Related articles

Newest articles

Subscribe today

Are you researching aviation incidents? Get access to AeroInside Insights, unlimited read access and receive the daily newsletter.

Pick your plan and subscribe

Partner

Blockaviation logo

A new way to document and demonstrate airworthiness compliance and aircraft value. Find out more.

Virtual Speech logo

ELITE Simulation Solutions is a leading global provider of Flight Simulation Training Devices, IFR training software as well as flight controls and related services. Find out more.

Get updates

Never miss an article from AeroInside. Subscribe to our free weekly newsletter and join 5372 existing subscribers.

By subscribing, you accept our terms and conditions and that you've read our privacy policy.

AeroInside Blog
Popular aircraft
Airbus A320
Boeing 737-800
Boeing 737-800 MAX
Popular airlines
American Airlines
United
Delta
Air Canada
Lufthansa
British Airways